sensor_id;sensor_type;location;lat;lon;timestamp;pressure;altitude;pressure_sealevel;temperature;humidity
36242;BME280;22283;42.748;12.732;2024-03-29T00:04:02;97788.06;;;13.82;100.00
36242;BME280;22283;42.748;12.732;2024-03-29T00:09:02;97787.66;;;13.76;100.00
36242;BME280;22283;42.748;12.732;2024-03-29T00:14:03;97788.25;;;13.70;100.00
36242;BME280;22283;42.748;12.732;2024-03-29T00:19:03;97785.44;;;13.72;100.00
36242;BME280;22283;42.748;12.732;2024-03-29T00:24:05;97774.81;;;13.62;100.00
36242;BME280;22283;42.748;12.732;2024-03-29T00:29:05;97783.19;;;13.58;100.00
36242;BME280;22283;42.748;12.732;2024-03-29T00:34:06;97789.34;;;13.58;100.00
36242;BME280;22283;42.748;12.732;2024-03-29T00:39:06;97790.19;;;13.59;100.00
36242;BME280;22283;42.748;12.732;2024-03-29T00:44:11;97773.97;;;13.52;100.00
36242;BME280;22283;42.748;12.732;2024-03-29T00:49:11;97784.72;;;13.60;100.00
36242;BME280;22283;42.748;12.732;2024-03-29T00:54:12;97770.31;;;13.53;100.00
36242;BME280;22283;42.748;12.732;2024-03-29T00:59:13;97760.38;;;13.74;100.00
36242;BME280;22283;42.748;12.732;2024-03-29T01:04:13;97758.28;;;13.68;100.00
36242;BME280;22283;42.748;12.732;2024-03-29T01:09:14;97756.88;;;13.64;100.00
36242;BME280;22283;42.748;12.732;2024-03-29T01:14:14;97776.47;;;13.63;100.00
36242;BME280;22283;42.748;12.732;2024-03-29T01:19:15;97777.16;;;13.65;100.00
36242;BME280;22283;42.748;12.732;2024-03-29T01:24:16;97787.78;;;13.65;100.00
36242;BME280;22283;42.748;12.732;2024-03-29T01:29:16;97796.91;;;13.63;100.00
36242;BME280;22283;42.748;12.732;2024-03-29T01:34:16;97790.75;;;13.62;100.00
36242;BME280;22283;42.748;12.732;2024-03-29T01:39:17;97783.31;;;13.56;100.00
36242;BME280;22283;42.748;12.732;2024-03-29T01:44:21;97787.13;;;13.63;100.00
36242;BME280;22283;42.748;12.732;2024-03-29T01:49:22;97801.66;;;13.59;100.00
36242;BME280;22283;42.748;12.732;2024-03-29T01:54:22;97789.34;;;13.58;100.00
36242;BME280;22283;42.748;12.732;2024-03-29T01:59:23;97778.44;;;13.61;100.00
36242;BME280;22283;42.748;12.732;2024-03-29T02:04:26;97772.69;;;13.56;100.00
36242;BME280;22283;42.748;12.732;2024-03-29T02:09:26;97774.94;;;13.61;100.00
36242;BME280;22283;42.748;12.732;2024-03-29T02:14:27;97759.25;;;13.48;100.00
36242;BME280;22283;42.748;12.732;2024-03-29T02:19:27;97755.22;;;13.44;100.00
36242;BME280;22283;42.748;12.732;2024-03-29T02:24:28;97760.50;;;13.53;100.00
36242;BME280;22283;42.748;12.732;2024-03-29T02:29:29;97766.41;;;13.57;100.00
36242;BME280;22283;42.748;12.732;2024-03-29T02:34:30;97770.91;;;13.66;100.00
36242;BME280;22283;42.748;12.732;2024-03-29T02:39:31;97764.72;;;13.75;100.00
36242;BME280;22283;42.748;12.732;2024-03-29T02:44:31;97768.63;;;13.81;100.00
36242;BME280;22283;42.748;12.732;2024-03-29T02:49:32;97771.97;;;13.73;99.63
36242;BME280;22283;42.748;12.732;2024-03-29T02:54:33;97777.59;;;13.70;99.57
36242;BME280;22283;42.748;12.732;2024-03-29T02:59:33;97784.59;;;13.71;99.01
36242;BME280;22283;42.748;12.732;2024-03-29T03:04:34;97791.28;;;13.66;98.95
36242;BME280;22283;42.748;12.732;2024-03-29T03:09:37;97789.34;;;13.77;97.57
36242;BME280;22283;42.748;12.732;2024-03-29T03:14:57;97797.59;;;13.84;96.68
36242;BME280;22283;42.748;12.732;2024-03-29T03:19:57;97807.00;;;13.78;96.50
36242;BME280;22283;42.748;12.732;2024-03-29T03:24:58;97802.63;;;13.68;96.75
36242;BME280;22283;42.748;12.732;2024-03-29T03:29:59;97795.09;;;13.63;96.84
36242;BME280;22283;42.748;12.732;2024-03-29T03:34:59;97796.34;;;13.69;96.43
36242;BME280;22283;42.748;12.732;2024-03-29T03:40:00;97807.81;;;13.69;96.06
36242;BME280;22283;42.748;12.732;2024-03-29T03:45:00;97818.31;;;13.71;96.32
36242;BME280;22283;42.748;12.732;2024-03-29T03:50:01;97808.63;;;13.70;95.76
36242;BME280;22283;42.748;12.732;2024-03-29T03:55:01;97808.09;;;13.76;94.90
36242;BME280;22283;42.748;12.732;2024-03-29T04:00:03;97821.53;;;13.74;95.09
36242;BME280;22283;42.748;12.732;2024-03-29T04:05:12;97819.84;;;13.64;95.97
36242;BME280;22283;42.748;12.732;2024-03-29T04:10:13;97824.31;;;13.63;95.19
36242;BME280;22283;42.748;12.732;2024-03-29T04:15:13;97813.44;;;13.66;95.42
36242;BME280;22283;42.748;12.732;2024-03-29T04:20:14;97811.59;;;13.67;94.79
36242;BME280;22283;42.748;12.732;2024-03-29T04:25:15;97823.38;;;13.74;94.66
36242;BME280;22283;42.748;12.732;2024-03-29T04:30:15;97833.56;;;13.78;93.96
36242;BME280;22283;42.748;12.732;2024-03-29T04:35:16;97826.28;;;13.81;93.63
36242;BME280;22283;42.748;12.732;2024-03-29T04:40:16;97818.75;;;13.66;94.23
36242;BME280;22283;42.748;12.732;2024-03-29T04:45:16;97852.31;;;13.67;94.46
36242;BME280;22283;42.748;12.732;2024-03-29T04:50:17;97886.41;;;13.52;96.24
36242;BME280;22283;42.748;12.732;2024-03-29T04:55:18;97881.41;;;13.59;95.62
36242;BME280;22283;42.748;12.732;2024-03-29T05:00:18;97891.06;;;13.60;95.31
36242;BME280;22283;42.748;12.732;2024-03-29T05:05:19;97885.88;;;13.59;95.19
36242;BME280;22283;42.748;12.732;2024-03-29T05:10:19;97888.97;;;13.73;94.47
36242;BME280;22283;42.748;12.732;2024-03-29T05:15:22;97868.56;;;13.74;94.69
36242;BME280;22283;42.748;12.732;2024-03-29T05:20:23;97884.50;;;13.84;94.46
36242;BME280;22283;42.748;12.732;2024-03-29T05:25:24;97870.25;;;13.75;95.09
36242;BME280;22283;42.748;12.732;2024-03-29T05:30:25;97897.09;;;13.82;94.23
36242;BME280;22283;42.748;12.732;2024-03-29T05:35:27;97892.91;;;13.89;93.75
36242;BME280;22283;42.748;12.732;2024-03-29T05:40:28;97887.03;;;14.05;93.39
36242;BME280;22283;42.748;12.732;2024-03-29T05:45:29;97897.00;;;14.51;90.44
36242;BME280;22283;42.748;12.732;2024-03-29T05:50:30;97906.53;;;15.00;86.21
36242;BME280;22283;42.748;12.732;2024-03-29T05:55:35;97899.38;;;15.38;83.86
36242;BME280;22283;42.748;12.732;2024-03-29T06:00:36;97883.09;;;15.69;80.54
36242;BME280;22283;42.748;12.732;2024-03-29T06:05:36;97895.13;;;15.91;79.69
36242;BME280;22283;42.748;12.732;2024-03-29T06:10:37;97888.97;;;16.44;76.26
36242;BME280;22283;42.748;12.732;2024-03-29T06:15:37;97897.25;;;16.77;72.57
36242;BME280;22283;42.748;12.732;2024-03-29T06:20:56;97895.56;;;16.76;72.11
36242;BME280;22283;42.748;12.732;2024-03-29T06:25:57;97906.59;;;16.63;73.89
36242;BME280;22283;42.748;12.732;2024-03-29T06:30:57;97901.47;;;16.43;73.70
36242;BME280;22283;42.748;12.732;2024-03-29T06:36:00;97886.53;;;16.33;74.32
36242;BME280;22283;42.748;12.732;2024-03-29T06:41:01;97889.97;;;16.25;75.30
36242;BME280;22283;42.748;12.732;2024-03-29T06:46:01;97901.25;;;16.37;73.37
36242;BME280;22283;42.748;12.732;2024-03-29T06:51:04;97880.94;;;16.44;74.01
36242;BME280;22283;42.748;12.732;2024-03-29T06:56:04;97872.06;;;16.61;71.95
36242;BME280;22283;42.748;12.732;2024-03-29T07:01:05;97876.03;;;16.75;69.38
36242;BME280;22283;42.748;12.732;2024-03-29T07:06:06;97866.34;;;17.08;65.91
36242;BME280;22283;42.748;12.732;2024-03-29T07:11:06;97866.97;;;17.36;64.18
36242;BME280;22283;42.748;12.732;2024-03-29T07:16:07;97866.50;;;17.49;63.44
36242;BME280;22283;42.748;12.732;2024-03-29T07:21:09;97876.91;;;17.52;63.06
36242;BME280;22283;42.748;12.732;2024-03-29T07:26:10;97879.91;;;17.57;63.15
36242;BME280;22283;42.748;12.732;2024-03-29T07:31:11;97884.94;;;17.60;63.32
36242;BME280;22283;42.748;12.732;2024-03-29T07:36:12;97876.59;;;17.55;64.26
36242;BME280;22283;42.748;12.732;2024-03-29T07:41:13;97869.34;;;17.98;63.31
36242;BME280;22283;42.748;12.732;2024-03-29T07:46:13;97865.00;;;18.62;59.81
36242;BME280;22283;42.748;12.732;2024-03-29T07:51:14;97865.50;;;18.82;58.10
36242;BME280;22283;42.748;12.732;2024-03-29T07:56:17;97864.56;;;19.14;58.18
36242;BME280;22283;42.748;12.732;2024-03-29T08:01:22;97858.53;;;19.21;56.99
36242;BME280;22283;42.748;12.732;2024-03-29T08:06:22;97847.16;;;19.10;56.63
36242;BME280;22283;42.748;12.732;2024-03-29T08:11:26;97862.44;;;19.49;56.29
36242;BME280;22283;42.748;12.732;2024-03-29T08:16:26;97839.41;;;19.63;55.71
36242;BME280;22283;42.748;12.732;2024-03-29T08:21:27;97855.84;;;19.91;55.13
36242;BME280;22283;42.748;12.732;2024-03-29T08:26:28;97846.13;;;20.36;52.63
36242;BME280;22283;42.748;12.732;2024-03-29T08:31:31;97857.03;;;20.57;50.08
36242;BME280;22283;42.748;12.732;2024-03-29T08:36:31;97857.44;;;20.84;50.97
36242;BME280;22283;42.748;12.732;2024-03-29T08:41:32;97858.03;;;21.24;50.33
36242;BME280;22283;42.748;12.732;2024-03-29T08:46:33;97855.06;;;21.19;50.38
36242;BME280;22283;42.748;12.732;2024-03-29T08:51:33;97846.50;;;21.30;48.17
36242;BME280;22283;42.748;12.732;2024-03-29T08:56:35;97851.97;;;21.66;47.06
36242;BME280;22283;42.748;12.732;2024-03-29T09:01:43;97860.53;;;21.91;45.13
36242;BME280;22283;42.748;12.732;2024-03-29T09:06:44;97867.56;;;21.92;45.58
36242;BME280;22283;42.748;12.732;2024-03-29T09:11:44;97861.72;;;21.89;44.61
36242;BME280;22283;42.748;12.732;2024-03-29T09:16:45;97853.63;;;21.67;44.77
36242;BME280;22283;42.748;12.732;2024-03-29T09:21:47;97854.34;;;21.97;45.68
36242;BME280;22283;42.748;12.732;2024-03-29T09:26:48;97853.34;;;21.98;45.03
36242;BME280;22283;42.748;12.732;2024-03-29T09:31:49;97841.22;;;22.09;45.49
36242;BME280;22283;42.748;12.732;2024-03-29T09:36:49;97842.72;;;21.90;44.54
36242;BME280;22283;42.748;12.732;2024-03-29T09:41:50;97840.50;;;21.79;43.99
36242;BME280;22283;42.748;12.732;2024-03-29T09:46:52;97840.56;;;21.49;45.03
36242;BME280;22283;42.748;12.732;2024-03-29T09:51:54;97842.31;;;21.93;44.54
36242;BME280;22283;42.748;12.732;2024-03-29T09:56:57;97856.63;;;22.58;43.18
36242;BME280;22283;42.748;12.732;2024-03-29T10:01:58;97855.13;;;22.77;42.85
36242;BME280;22283;42.748;12.732;2024-03-29T10:06:59;97847.66;;;22.79;41.24
36242;BME280;22283;42.748;12.732;2024-03-29T10:12:00;97840.09;;;22.68;42.31
36242;BME280;22283;42.748;12.732;2024-03-29T10:17:00;97835.84;;;22.52;43.57
36242;BME280;22283;42.748;12.732;2024-03-29T10:22:07;97823.59;;;22.77;41.46
36242;BME280;22283;42.748;12.732;2024-03-29T10:27:08;97814.69;;;23.12;41.48
36242;BME280;22283;42.748;12.732;2024-03-29T10:32:08;97815.72;;;23.59;39.83
36242;BME280;22283;42.748;12.732;2024-03-29T10:37:09;97809.56;;;23.78;40.60
36242;BME280;22283;42.748;12.732;2024-03-29T10:42:11;97808.41;;;24.14;38.28
36242;BME280;22283;42.748;12.732;2024-03-29T10:47:17;97804.69;;;24.68;38.31
36242;BME280;22283;42.748;12.732;2024-03-29T10:52:19;97797.81;;;24.59;37.94
36242;BME280;22283;42.748;12.732;2024-03-29T10:57:27;97790.13;;;24.42;36.89
36242;BME280;22283;42.748;12.732;2024-03-29T11:02:39;97782.00;;;24.62;37.28
36242;BME280;22283;42.748;12.732;2024-03-29T11:07:43;97756.44;;;24.51;36.19
36242;BME280;22283;42.748;12.732;2024-03-29T11:12:58;97746.66;;;24.57;36.75
36242;BME280;22283;42.748;12.732;2024-03-29T11:18:00;97739.41;;;24.44;36.43
36242;BME280;22283;42.748;12.732;2024-03-29T11:23:03;97731.88;;;23.80;36.15
36242;BME280;22283;42.748;12.732;2024-03-29T11:28:07;97726.06;;;23.90;36.96
36242;BME280;22283;42.748;12.732;2024-03-29T11:34:08;97726.91;;;23.97;37.33
36242;BME280;22283;42.748;12.732;2024-03-29T11:38:50;97722.28;;;23.71;36.13
36242;BME280;22283;42.748;12.732;2024-03-29T11:43:51;97692.88;;;23.28;36.84
36242;BME280;22283;42.748;12.732;2024-03-29T11:48:51;97698.63;;;23.93;37.15
36242;BME280;22283;42.748;12.732;2024-03-29T11:53:53;97684.03;;;24.67;36.97
36242;BME280;22283;42.748;12.732;2024-03-29T11:58:53;97685.63;;;24.81;34.86
36242;BME280;22283;42.748;12.732;2024-03-29T12:03:59;97686.16;;;25.10;34.28
36242;BME280;22283;42.748;12.732;2024-03-29T12:09:01;97689.84;;;25.22;33.22
36242;BME280;22283;42.748;12.732;2024-03-29T12:14:01;97684.53;;;25.40;32.84
36242;BME280;22283;42.748;12.732;2024-03-29T12:19:02;97689.56;;;25.30;32.61
36242;BME280;22283;42.748;12.732;2024-03-29T12:24:03;97654.38;;;24.85;33.04
36242;BME280;22283;42.748;12.732;2024-03-29T12:29:04;97658.94;;;24.91;33.04
36242;BME280;22283;42.748;12.732;2024-03-29T12:34:04;97645.69;;;24.76;32.96
36242;BME280;22283;42.748;12.732;2024-03-29T12:39:07;97668.16;;;25.22;33.46
36242;BME280;22283;42.748;12.732;2024-03-29T12:44:07;97645.41;;;25.36;31.88
36242;BME280;22283;42.748;12.732;2024-03-29T12:49:10;97649.16;;;25.35;33.93
36242;BME280;22283;42.748;12.732;2024-03-29T12:54:11;97652.97;;;25.21;33.71
36242;BME280;22283;42.748;12.732;2024-03-29T12:59:13;97663.44;;;24.59;34.12
36242;BME280;22283;42.748;12.732;2024-03-29T13:04:15;97653.63;;;24.65;35.52
36242;BME280;22283;42.748;12.732;2024-03-29T13:09:15;97650.34;;;24.49;36.11
36242;BME280;22283;42.748;12.732;2024-03-29T13:14:16;97655.78;;;24.23;36.29
36242;BME280;22283;42.748;12.732;2024-03-29T13:19:16;97668.91;;;24.06;37.47
36242;BME280;22283;42.748;12.732;2024-03-29T13:24:17;97650.00;;;23.86;38.03
36242;BME280;22283;42.748;12.732;2024-03-29T13:29:17;97654.34;;;23.67;38.18
36242;BME280;22283;42.748;12.732;2024-03-29T13:34:18;97639.59;;;23.56;38.56
36242;BME280;22283;42.748;12.732;2024-03-29T13:39:18;97651.63;;;23.61;38.62
36242;BME280;22283;42.748;12.732;2024-03-29T13:44:19;97647.63;;;23.23;38.52
36242;BME280;22283;42.748;12.732;2024-03-29T13:49:20;97659.03;;;23.19;39.16
36242;BME280;22283;42.748;12.732;2024-03-29T13:54:21;97662.75;;;23.04;39.64
36242;BME280;22283;42.748;12.732;2024-03-29T13:59:21;97657.22;;;22.78;40.72
36242;BME280;22283;42.748;12.732;2024-03-29T14:04:22;97656.88;;;22.94;39.72
36242;BME280;22283;42.748;12.732;2024-03-29T14:09:22;97651.81;;;22.84;40.47
36242;BME280;22283;42.748;12.732;2024-03-29T14:14:23;97630.63;;;22.75;40.31
36242;BME280;22283;42.748;12.732;2024-03-29T14:19:24;97645.69;;;22.97;39.33
36242;BME280;22283;42.748;12.732;2024-03-29T14:24:24;97637.03;;;23.09;39.29
36242;BME280;22283;42.748;12.732;2024-03-29T14:29:25;97648.03;;;23.14;40.01
36242;BME280;22283;42.748;12.732;2024-03-29T14:34:26;97629.13;;;23.07;40.27
36242;BME280;22283;42.748;12.732;2024-03-29T14:39:26;97636.56;;;22.98;40.74
36242;BME280;22283;42.748;12.732;2024-03-29T14:44:28;97638.34;;;22.84;41.18
36242;BME280;22283;42.748;12.732;2024-03-29T14:49:28;97628.50;;;22.64;43.79
36242;BME280;22283;42.748;12.732;2024-03-29T14:54:29;97620.41;;;22.57;44.02
36242;BME280;22283;42.748;12.732;2024-03-29T14:59:29;97624.69;;;22.45;41.81
36242;BME280;22283;42.748;12.732;2024-03-29T15:04:30;97614.91;;;22.09;43.76
36242;BME280;22283;42.748;12.732;2024-03-29T15:09:31;97603.56;;;21.85;42.08
36242;BME280;22283;42.748;12.732;2024-03-29T15:14:32;97590.25;;;21.71;44.27
36242;BME280;22283;42.748;12.732;2024-03-29T15:19:32;97596.78;;;21.61;44.46
36242;BME280;22283;42.748;12.732;2024-03-29T15:24:33;97591.28;;;21.48;44.80
36242;BME280;22283;42.748;12.732;2024-03-29T15:29:34;97598.97;;;20.87;45.56
36242;BME280;22283;42.748;12.732;2024-03-29T15:34:34;97599.34;;;20.84;46.38
36242;BME280;22283;42.748;12.732;2024-03-29T15:39:35;97611.38;;;20.88;48.41
36242;BME280;22283;42.748;12.732;2024-03-29T15:44:36;97599.94;;;20.65;47.32
36242;BME280;22283;42.748;12.732;2024-03-29T15:49:36;97599.47;;;20.61;47.55
36242;BME280;22283;42.748;12.732;2024-03-29T15:54:37;97594.56;;;20.65;47.87
36242;BME280;22283;42.748;12.732;2024-03-29T15:59:37;97604.66;;;20.62;47.65
36242;BME280;22283;42.748;12.732;2024-03-29T16:04:38;97582.34;;;20.47;47.82
36242;BME280;22283;42.748;12.732;2024-03-29T16:09:39;97590.34;;;20.55;47.45
36242;BME280;22283;42.748;12.732;2024-03-29T16:14:39;97586.81;;;20.40;48.16
36242;BME280;22283;42.748;12.732;2024-03-29T16:19:40;97586.69;;;20.48;48.55
36242;BME280;22283;42.748;12.732;2024-03-29T16:24:40;97582.53;;;20.31;48.74
36242;BME280;22283;42.748;12.732;2024-03-29T16:29:42;97605.97;;;20.22;48.99
36242;BME280;22283;42.748;12.732;2024-03-29T16:34:42;97594.88;;;20.10;48.62
36242;BME280;22283;42.748;12.732;2024-03-29T16:39:46;97602.28;;;20.08;48.09
36242;BME280;22283;42.748;12.732;2024-03-29T16:44:46;97599.50;;;20.02;48.73
36242;BME280;22283;42.748;12.732;2024-03-29T16:49:47;97606.47;;;19.96;48.95
36242;BME280;22283;42.748;12.732;2024-03-29T16:54:48;97605.88;;;19.86;48.27
36242;BME280;22283;42.748;12.732;2024-03-29T16:59:48;97602.34;;;19.71;48.65
36242;BME280;22283;42.748;12.732;2024-03-29T17:04:49;97599.44;;;19.57;49.23
36242;BME280;22283;42.748;12.732;2024-03-29T17:09:51;97590.22;;;19.37;50.41
36242;BME280;22283;42.748;12.732;2024-03-29T17:14:51;97591.06;;;19.14;51.22
36242;BME280;22283;42.748;12.732;2024-03-29T17:19:52;97602.38;;;19.02;51.68
36242;BME280;22283;42.748;12.732;2024-03-29T17:24:53;97598.50;;;18.81;52.51
36242;BME280;22283;42.748;12.732;2024-03-29T17:29:54;97610.41;;;18.79;52.23
36242;BME280;22283;42.748;12.732;2024-03-29T17:34:54;97620.50;;;18.60;53.29
36242;BME280;22283;42.748;12.732;2024-03-29T17:39:55;97624.06;;;18.53;52.71
36242;BME280;22283;42.748;12.732;2024-03-29T17:44:55;97639.00;;;18.47;52.59
36242;BME280;22283;42.748;12.732;2024-03-29T17:49:56;97623.38;;;18.19;53.22
36242;BME280;22283;42.748;12.732;2024-03-29T17:54:56;97634.78;;;18.13;52.44
36242;BME280;22283;42.748;12.732;2024-03-29T17:59:57;97635.78;;;18.04;51.08
36242;BME280;22283;42.748;12.732;2024-03-29T18:04:59;97645.00;;;17.93;51.32
36242;BME280;22283;42.748;12.732;2024-03-29T18:10:00;97635.53;;;17.75;51.81
36242;BME280;22283;42.748;12.732;2024-03-29T18:15:00;97648.19;;;17.73;50.95
36242;BME280;22283;42.748;12.732;2024-03-29T18:20:01;97655.22;;;17.57;51.32
36242;BME280;22283;42.748;12.732;2024-03-29T18:25:01;97657.91;;;17.41;51.35
36242;BME280;22283;42.748;12.732;2024-03-29T18:30:02;97657.72;;;17.26;51.23
36242;BME280;22283;42.748;12.732;2024-03-29T18:35:04;97656.06;;;17.25;50.96
36242;BME280;22283;42.748;12.732;2024-03-29T18:40:05;97657.56;;;17.19;51.40
36242;BME280;22283;42.748;12.732;2024-03-29T18:45:06;97658.53;;;17.10;51.08
36242;BME280;22283;42.748;12.732;2024-03-29T18:50:06;97660.56;;;17.08;50.80
36242;BME280;22283;42.748;12.732;2024-03-29T18:55:07;97659.72;;;17.08;50.59
36242;BME280;22283;42.748;12.732;2024-03-29T19:00:08;97654.16;;;16.93;51.00
36242;BME280;22283;42.748;12.732;2024-03-29T19:05:09;97663.34;;;16.90;50.54
36242;BME280;22283;42.748;12.732;2024-03-29T19:10:10;97673.50;;;16.79;50.74
36242;BME280;22283;42.748;12.732;2024-03-29T19:15:10;97664.25;;;16.65;50.50
36242;BME280;22283;42.748;12.732;2024-03-29T19:20:11;97667.63;;;16.67;48.54
36242;BME280;22283;42.748;12.732;2024-03-29T19:25:11;97682.78;;;16.66;48.11
36242;BME280;22283;42.748;12.732;2024-03-29T19:30:12;97677.13;;;16.69;46.86
36242;BME280;22283;42.748;12.732;2024-03-29T19:35:13;97681.44;;;16.70;47.37
36242;BME280;22283;42.748;12.732;2024-03-29T19:40:13;97669.06;;;16.61;47.55
36242;BME280;22283;42.748;12.732;2024-03-29T19:45:14;97662.69;;;16.54;46.80
36242;BME280;22283;42.748;12.732;2024-03-29T19:50:14;97658.03;;;16.48;46.74
36242;BME280;22283;42.748;12.732;2024-03-29T19:55:16;97663.03;;;16.51;45.30
36242;BME280;22283;42.748;12.732;2024-03-29T20:00:19;97664.00;;;16.42;45.17
36242;BME280;22283;42.748;12.732;2024-03-29T20:05:20;97657.56;;;16.27;44.71
36242;BME280;22283;42.748;12.732;2024-03-29T20:10:21;97655.66;;;16.11;45.51
36242;BME280;22283;42.748;12.732;2024-03-29T20:15:21;97637.16;;;16.09;43.75
36242;BME280;22283;42.748;12.732;2024-03-29T20:20:22;97642.88;;;16.22;42.69
36242;BME280;22283;42.748;12.732;2024-03-29T20:25:22;97645.72;;;16.21;42.51
36242;BME280;22283;42.748;12.732;2024-03-29T20:30:24;97655.88;;;16.17;42.23
36242;BME280;22283;42.748;12.732;2024-03-29T20:35:24;97649.53;;;16.18;41.45
36242;BME280;22283;42.748;12.732;2024-03-29T20:40:25;97650.84;;;16.14;42.07
36242;BME280;22283;42.748;12.732;2024-03-29T20:45:26;97639.84;;;16.17;41.56
36242;BME280;22283;42.748;12.732;2024-03-29T20:50:26;97647.59;;;16.03;41.79
36242;BME280;22283;42.748;12.732;2024-03-29T20:55:28;97624.09;;;15.72;43.22
36242;BME280;22283;42.748;12.732;2024-03-29T21:00:29;97629.06;;;15.49;43.86
36242;BME280;22283;42.748;12.732;2024-03-29T21:05:30;97647.34;;;15.44;44.75
36242;BME280;22283;42.748;12.732;2024-03-29T21:10:35;97642.25;;;15.15;47.27
36242;BME280;22283;42.748;12.732;2024-03-29T21:15:36;97635.97;;;14.98;47.72
36242;BME280;22283;42.748;12.732;2024-03-29T21:20:36;97644.16;;;14.87;48.46
36242;BME280;22283;42.748;12.732;2024-03-29T21:25:37;97642.00;;;14.72;48.55
36242;BME280;22283;42.748;12.732;2024-03-29T21:30:38;97623.91;;;14.58;47.21
36242;BME280;22283;42.748;12.732;2024-03-29T21:35:39;97631.50;;;14.43;49.47
36242;BME280;22283;42.748;12.732;2024-03-29T21:40:40;97634.63;;;14.39;49.72
36242;BME280;22283;42.748;12.732;2024-03-29T21:45:40;97634.16;;;14.43;49.03
36242;BME280;22283;42.748;12.732;2024-03-29T21:50:41;97628.22;;;14.32;50.73
36242;BME280;22283;42.748;12.732;2024-03-29T21:55:41;97619.16;;;14.52;49.51
36242;BME280;22283;42.748;12.732;2024-03-29T22:00:43;97606.53;;;14.26;50.25
36242;BME280;22283;42.748;12.732;2024-03-29T22:05:44;97603.31;;;14.23;50.50
36242;BME280;22283;42.748;12.732;2024-03-29T22:10:44;97599.63;;;14.06;51.97
36242;BME280;22283;42.748;12.732;2024-03-29T22:15:45;97600.66;;;13.86;51.40
36242;BME280;22283;42.748;12.732;2024-03-29T22:20:45;97608.53;;;13.77;51.25
36242;BME280;22283;42.748;12.732;2024-03-29T22:25:46;97592.91;;;13.74;50.34
36242;BME280;22283;42.748;12.732;2024-03-29T22:30:49;97609.50;;;13.86;49.06
36242;BME280;22283;42.748;12.732;2024-03-29T22:35:49;97614.41;;;13.81;50.99
36242;BME280;22283;42.748;12.732;2024-03-29T22:40:50;97604.69;;;13.62;50.98
36242;BME280;22283;42.748;12.732;2024-03-29T22:45:50;97592.13;;;13.45;51.25
36242;BME280;22283;42.748;12.732;2024-03-29T22:50:53;97590.19;;;13.37;52.68
36242;BME280;22283;42.748;12.732;2024-03-29T22:55:54;97574.69;;;13.23;52.59
36242;BME280;22283;42.748;12.732;2024-03-29T23:00:55;97584.59;;;13.40;50.46
36242;BME280;22283;42.748;12.732;2024-03-29T23:05:56;97576.19;;;13.45;51.30
36242;BME280;22283;42.748;12.732;2024-03-29T23:10:56;97581.66;;;13.34;52.02
36242;BME280;22283;42.748;12.732;2024-03-29T23:15:57;97588.22;;;13.29;51.37
36242;BME280;22283;42.748;12.732;2024-03-29T23:20:58;97574.00;;;13.31;50.91
36242;BME280;22283;42.748;12.732;2024-03-29T23:25:58;97581.41;;;13.27;51.72
36242;BME280;22283;42.748;12.732;2024-03-29T23:31:03;97574.56;;;13.24;51.28
36242;BME280;22283;42.748;12.732;2024-03-29T23:36:04;97569.06;;;13.16;51.61
36242;BME280;22283;42.748;12.732;2024-03-29T23:41:04;97576.22;;;13.06;51.04
36242;BME280;22283;42.748;12.732;2024-03-29T23:46:06;97585.44;;;13.02;51.12
36242;BME280;22283;42.748;12.732;2024-03-29T23:51:06;97585.44;;;12.92;51.44
36242;BME280;22283;42.748;12.732;2024-03-29T23:56:07;97582.38;;;12.97;50.11
